createdAt,value
2017-02-22T00:00:48.636Z,0
2017-02-22T00:01:58.585Z,0
2017-02-22T00:03:08.947Z,0
2017-02-22T00:04:19.690Z,0
2017-02-22T00:05:30.474Z,0
2017-02-22T00:06:41.555Z,0
2017-02-22T00:07:52.315Z,0
2017-02-22T00:09:02.662Z,0
2017-02-22T00:10:13.419Z,0
2017-02-22T00:11:24.172Z,0
2017-02-22T00:12:34.764Z,0
2017-02-22T00:13:45.116Z,0
2017-02-22T00:14:55.855Z,0
2017-02-22T00:16:06.217Z,0
2017-02-22T00:17:16.969Z,0
2017-02-22T00:18:27.578Z,0
2017-02-22T00:19:38.343Z,0
2017-02-22T00:20:49.126Z,0
2017-02-22T00:21:59.871Z,0
2017-02-22T00:23:10.223Z,0
2017-02-22T00:24:20.876Z,0
2017-02-22T00:25:30.838Z,0
2017-02-22T00:26:41.596Z,0
2017-02-22T00:27:51.939Z,0
2017-02-22T00:29:02.730Z,0
2017-02-22T00:30:13.739Z,0
2017-02-22T00:31:24.530Z,0
2017-02-22T00:32:34.896Z,0
2017-02-22T00:33:45.628Z,0
2017-02-22T00:34:56.396Z,0
2017-02-22T00:36:07.056Z,0
2017-02-22T00:37:17.404Z,0
2017-02-22T00:38:27.759Z,0
2017-02-22T00:39:38.118Z,0
2017-02-22T00:40:47.686Z,0
2017-02-22T00:41:58.339Z,0
2017-02-22T00:43:09.087Z,0
2017-02-22T00:44:19.045Z,0
2017-02-22T00:45:29.453Z,0
2017-02-22T00:46:39.820Z,0
2017-02-22T00:47:50.051Z,0
2017-02-22T00:49:00.817Z,0
2017-02-22T00:50:11.171Z,0
2017-02-22T00:51:21.525Z,0
2017-02-22T00:52:31.883Z,0
2017-02-22T00:53:42.088Z,0
2017-02-22T00:54:52.428Z,0
2017-02-22T00:56:03.189Z,0
2017-02-22T00:57:13.934Z,0
2017-02-22T00:58:23.883Z,0
2017-02-22T00:59:34.892Z,0
2017-02-22T01:00:44.853Z,0
2017-02-22T01:01:55.215Z,0
2017-02-22T01:03:04.754Z,0
2017-02-22T01:04:15.093Z,0
2017-02-22T01:05:26.098Z,0
2017-02-22T01:06:36.063Z,0
2017-02-22T01:07:46.438Z,0
2017-02-22T01:08:57.186Z,0
2017-02-22T01:10:07.935Z,0
2017-02-22T01:11:18.986Z,0
2017-02-22T01:12:29.727Z,0
2017-02-22T01:13:40.475Z,0
2017-02-22T01:14:51.247Z,0
2017-02-22T01:16:01.612Z,0
2017-02-22T01:17:12.670Z,0
2017-02-22T01:18:23.020Z,0
2017-02-22T01:19:33.391Z,0
2017-02-22T01:20:43.745Z,0
2017-02-22T01:21:54.103Z,0
2017-02-22T01:23:05.105Z,0
2017-02-22T01:24:15.861Z,0
2017-02-22T01:25:26.648Z,0
2017-02-22T01:26:37.403Z,0
2017-02-22T01:27:47.760Z,0
2017-02-22T01:28:58.354Z,0
2017-02-22T01:30:08.706Z,0
2017-02-22T01:31:19.448Z,0
2017-02-22T01:32:29.809Z,0
2017-02-22T01:33:40.145Z,0
2017-02-22T01:34:51.144Z,0
2017-02-22T01:36:01.214Z,0
2017-02-22T01:37:11.599Z,0
2017-02-22T01:38:21.963Z,0
2017-02-22T01:39:32.734Z,0
2017-02-22T01:40:43.329Z,0
2017-02-22T01:41:53.284Z,0
2017-02-22T01:43:04.062Z,0
2017-02-22T01:44:14.798Z,0
2017-02-22T01:45:25.534Z,0
2017-02-22T01:46:36.286Z,0
2017-02-22T01:47:46.638Z,0
2017-02-22T01:48:56.974Z,0
2017-02-22T01:50:07.336Z,0
2017-02-22T01:51:17.299Z,0
2017-02-22T01:52:28.283Z,0
2017-02-22T01:53:38.635Z,0
2017-02-22T01:54:48.639Z,0
2017-02-22T01:55:58.994Z,0
2017-02-22T01:57:09.733Z,0
2017-02-22T01:58:20.731Z,0
2017-02-22T01:59:31.483Z,0
2017-02-22T02:00:42.236Z,0
2017-02-22T02:01:52.992Z,0
2017-02-22T02:03:03.736Z,0
2017-02-22T02:04:14.396Z,0
2017-02-22T02:05:25.156Z,0
2017-02-22T02:06:35.501Z,0
2017-02-22T02:07:45.858Z,0
2017-02-22T02:08:55.860Z,0
2017-02-22T02:10:06.456Z,0
2017-02-22T02:11:16.411Z,0
2017-02-22T02:12:27.166Z,0
2017-02-22T02:13:36.711Z,0
2017-02-22T02:14:47.455Z,0
2017-02-22T02:15:57.720Z,0
2017-02-22T02:17:07.675Z,0
2017-02-22T02:18:18.001Z,0
2017-02-22T02:19:28.731Z,0
2017-02-22T02:20:39.092Z,0
2017-02-22T02:21:49.684Z,0
2017-02-22T02:23:00.043Z,0
2017-02-22T02:24:10.420Z,0
2017-02-22T02:25:21.159Z,0
2017-02-22T02:26:31.108Z,0
2017-02-22T02:27:41.328Z,0
2017-02-22T02:28:51.684Z,0
2017-02-22T02:30:02.437Z,0
2017-02-22T02:31:13.184Z,0
2017-02-22T02:32:23.932Z,0
2017-02-22T02:33:34.977Z,0
2017-02-22T02:34:45.733Z,0
2017-02-22T02:35:56.068Z,0
2017-02-22T02:37:06.824Z,0
2017-02-22T02:38:17.163Z,0
2017-02-22T02:39:28.244Z,0
2017-02-22T02:40:38.215Z,0
2017-02-22T02:41:48.977Z,0
2017-02-22T02:42:59.729Z,0
2017-02-22T02:44:10.083Z,0
2017-02-22T02:45:21.073Z,0
2017-02-22T02:46:31.832Z,0
2017-02-22T02:47:42.593Z,0
2017-02-22T02:48:53.358Z,0
2017-02-22T02:50:03.333Z,0
2017-02-22T02:51:13.933Z,0
2017-02-22T02:52:24.296Z,0
2017-02-22T02:53:33.860Z,0
2017-02-22T02:54:43.808Z,0
2017-02-22T02:55:54.155Z,0
2017-02-22T02:57:04.814Z,0
2017-02-22T02:58:15.166Z,0
2017-02-22T02:59:24.721Z,0
2017-02-22T03:00:35.070Z,0
2017-02-22T03:01:45.800Z,0
2017-02-22T03:02:56.065Z,0
2017-02-22T03:04:06.811Z,0
2017-02-22T03:05:16.759Z,0
2017-02-22T03:06:27.134Z,0
2017-02-22T03:07:37.092Z,0
2017-02-22T03:08:48.075Z,0
2017-02-22T03:09:58.420Z,0
2017-02-22T03:11:08.358Z,0
2017-02-22T03:12:18.307Z,0
2017-02-22T03:13:28.689Z,0
2017-02-22T03:14:39.743Z,0
2017-02-22T03:15:50.499Z,0
2017-02-22T03:17:01.230Z,0
2017-02-22T03:18:11.583Z,0
2017-02-22T03:19:22.346Z,0
2017-02-22T03:20:32.189Z,0
2017-02-22T03:21:42.580Z,0
2017-02-22T03:22:52.929Z,0
2017-02-22T03:24:03.680Z,0
2017-02-22T03:25:13.629Z,0
2017-02-22T03:26:24.605Z,0
2017-02-22T03:27:34.996Z,0
2017-02-22T03:28:45.357Z,0
2017-02-22T03:29:56.110Z,0
2017-02-22T03:31:06.851Z,0
2017-02-22T03:32:17.058Z,0
2017-02-22T03:33:27.417Z,0
2017-02-22T03:34:37.763Z,0
2017-02-22T03:35:48.108Z,0
2017-02-22T03:36:58.457Z,0
2017-02-22T03:38:09.130Z,0
2017-02-22T03:39:19.875Z,0
2017-02-22T03:40:29.814Z,0
2017-02-22T03:41:40.182Z,0
2017-02-22T03:42:50.940Z,0
2017-02-22T03:44:01.530Z,0
2017-02-22T03:45:11.490Z,0
2017-02-22T03:46:21.458Z,0
2017-02-22T03:47:31.785Z,0
2017-02-22T03:48:42.154Z,0
2017-02-22T03:49:52.745Z,0
2017-02-22T03:51:02.713Z,0
2017-02-22T03:52:13.453Z,0
2017-02-22T03:53:23.408Z,0
2017-02-22T03:54:33.766Z,0
2017-02-22T03:55:44.412Z,0
2017-02-22T03:56:55.162Z,0
2017-02-22T03:58:05.914Z,0
2017-02-22T03:59:15.869Z,0
2017-02-22T04:00:26.122Z,0
2017-02-22T04:01:37.135Z,0
2017-02-22T04:02:47.497Z,0
2017-02-22T04:03:57.859Z,0
2017-02-22T04:05:08.621Z,0
2017-02-22T04:06:18.573Z,0
2017-02-22T04:07:29.234Z,0
2017-02-22T04:08:39.997Z,0
2017-02-22T04:09:49.972Z,0
2017-02-22T04:10:59.920Z,0
2017-02-22T04:12:10.276Z,0
2017-02-22T04:13:20.941Z,0
2017-02-22T04:14:30.880Z,0
2017-02-22T04:15:41.256Z,0
2017-02-22T04:16:51.218Z,0
2017-02-22T04:18:01.963Z,0
2017-02-22T04:19:12.621Z,0
2017-02-22T04:20:22.964Z,0
2017-02-22T04:21:33.715Z,0
2017-02-22T04:22:44.445Z,0
2017-02-22T04:23:54.797Z,0
2017-02-22T04:25:05.831Z,0
2017-02-22T04:26:16.596Z,0
2017-02-22T04:27:27.329Z,0
2017-02-22T04:28:38.090Z,0
2017-02-22T04:29:48.836Z,0
2017-02-22T04:30:59.053Z,0
2017-02-22T04:32:09.406Z,0
2017-02-22T04:33:19.758Z,0
2017-02-22T04:34:30.109Z,0
2017-02-22T04:35:39.656Z,0
2017-02-22T04:36:50.648Z,0
2017-02-22T04:38:00.593Z,0
2017-02-22T04:39:10.544Z,0
2017-02-22T04:40:20.900Z,0
2017-02-22T04:41:30.855Z,0
2017-02-22T04:42:41.851Z,0
2017-02-22T04:43:52.186Z,0
2017-02-22T04:45:01.771Z,0
2017-02-22T04:46:11.338Z,0
2017-02-22T04:47:22.094Z,0
2017-02-22T04:48:33.224Z,0
2017-02-22T04:49:42.785Z,0
2017-02-22T04:50:53.526Z,0
2017-02-22T04:52:04.283Z,0
2017-02-22T04:53:14.638Z,0
2017-02-22T04:54:24.859Z,0
2017-02-22T04:55:34.826Z,0
2017-02-22T04:56:45.576Z,0
2017-02-22T04:57:55.940Z,0
2017-02-22T04:59:06.690Z,0
2017-02-22T05:00:16.899Z,0
2017-02-22T05:01:26.849Z,0
2017-02-22T05:02:37.595Z,0
2017-02-22T05:03:48.357Z,0
2017-02-22T05:04:58.357Z,0
2017-02-22T05:06:08.622Z,0
2017-02-22T05:07:18.574Z,0
2017-02-22T05:08:28.923Z,0
2017-02-22T05:09:39.262Z,0
2017-02-22T05:10:49.628Z,0
2017-02-22T05:11:59.843Z,0
2017-02-22T05:13:10.210Z,0
2017-02-22T05:14:20.965Z,0
2017-02-22T05:15:31.313Z,0
2017-02-22T05:16:42.066Z,0
2017-02-22T05:17:52.654Z,0
2017-02-22T05:19:02.594Z,0
2017-02-22T05:20:12.933Z,0
2017-02-22T05:21:23.662Z,0
2017-02-22T05:22:34.011Z,0
2017-02-22T05:23:44.673Z,0
2017-02-22T05:24:55.019Z,0
2017-02-22T05:26:04.964Z,0
2017-02-22T05:27:14.913Z,0
2017-02-22T05:28:25.649Z,0
2017-02-22T05:29:36.305Z,0
2017-02-22T05:30:45.873Z,0
2017-02-22T05:31:56.648Z,0
2017-02-22T05:33:06.600Z,0
2017-02-22T05:34:16.974Z,0
2017-02-22T05:35:27.579Z,0
2017-02-22T05:36:38.328Z,0
2017-02-22T05:37:49.081Z,0
2017-02-22T05:38:59.439Z,0
2017-02-22T05:40:10.207Z,0
2017-02-22T05:41:20.010Z,0
2017-02-22T05:42:30.782Z,0
2017-02-22T05:43:41.134Z,0
2017-02-22T05:44:51.914Z,0
2017-02-22T05:46:01.908Z,0
2017-02-22T05:47:12.490Z,0
2017-02-22T05:48:22.836Z,0
2017-02-22T05:49:32.797Z,0
2017-02-22T05:50:43.559Z,0
2017-02-22T05:51:53.892Z,0
2017-02-22T05:53:03.708Z,0
2017-02-22T05:54:14.500Z,0
2017-02-22T05:55:24.440Z,0
2017-02-22T05:56:34.007Z,0
2017-02-22T05:57:43.569Z,0
2017-02-22T05:58:53.841Z,0
2017-02-22T06:00:04.598Z,0
2017-02-22T06:01:14.952Z,0
2017-02-22T06:02:24.958Z,0
2017-02-22T06:03:35.323Z,0
2017-02-22T06:04:46.353Z,0
2017-02-22T06:05:56.698Z,0
2017-02-22T06:07:07.425Z,0
2017-02-22T06:08:17.802Z,0
2017-02-22T06:09:28.548Z,0
2017-02-22T06:10:39.543Z,0
2017-02-22T06:11:50.321Z,0
2017-02-22T06:13:00.670Z,0
2017-02-22T06:14:11.032Z,0
2017-02-22T06:15:20.991Z,0
2017-02-22T06:16:31.594Z,0
2017-02-22T06:17:41.993Z,0
2017-02-22T06:18:52.739Z,0
2017-02-22T06:20:03.096Z,0
2017-02-22T06:21:13.457Z,0
2017-02-22T06:22:24.052Z,0
2017-02-22T06:23:34.410Z,0
2017-02-22T06:24:45.163Z,0
2017-02-22T06:25:55.498Z,0
2017-02-22T06:27:05.840Z,0
2017-02-22T06:28:16.052Z,0
2017-02-22T06:29:26.814Z,0
2017-02-22T06:30:36.763Z,0
2017-02-22T06:31:47.523Z,0
2017-02-22T06:32:57.873Z,0
2017-02-22T06:34:07.671Z,0
2017-02-22T06:35:18.026Z,0
2017-02-22T06:36:28.011Z,0
2017-02-22T06:37:38.344Z,5
2017-02-22T06:38:49.138Z,5
2017-02-22T06:39:59.741Z,5
2017-02-22T06:41:09.710Z,5
2017-02-22T06:42:21.066Z,5
2017-02-22T06:43:31.819Z,5
2017-02-22T06:44:42.564Z,5
2017-02-22T06:45:53.573Z,5
2017-02-22T06:47:03.141Z,5
2017-02-22T06:48:13.497Z,5
2017-02-22T06:49:23.861Z,5
2017-02-22T06:50:34.615Z,5
2017-02-22T06:51:45.658Z,5
2017-02-22T06:52:56.442Z,5
2017-02-22T06:54:06.800Z,5
2017-02-22T06:55:16.752Z,5
2017-02-22T06:56:27.507Z,5
2017-02-22T06:57:38.116Z,5
2017-02-22T06:58:48.462Z,5
2017-02-22T06:59:58.826Z,5
2017-02-22T07:01:08.797Z,5
2017-02-22T07:02:19.204Z,5
2017-02-22T07:03:30.253Z,5
2017-02-22T07:04:39.815Z,5
2017-02-22T07:05:50.573Z,5
2017-02-22T07:07:01.315Z,5
2017-02-22T07:08:12.064Z,5
2017-02-22T07:09:22.669Z,5
2017-02-22T07:10:33.028Z,5
2017-02-22T07:11:43.379Z,5
2017-02-22T07:12:53.738Z,5
2017-02-22T07:14:04.097Z,10
2017-02-22T07:15:15.101Z,10
2017-02-22T07:16:25.067Z,10
2017-02-22T07:17:35.028Z,10
2017-02-22T07:18:45.394Z,10
2017-02-22T07:19:56.154Z,10
2017-02-22T07:21:07.203Z,10
2017-02-22T07:22:17.559Z,10
2017-02-22T07:23:27.930Z,10
2017-02-22T07:24:38.678Z,10
2017-02-22T07:25:49.040Z,10
2017-02-22T07:27:00.106Z,15
2017-02-22T07:28:10.084Z,15
2017-02-22T07:29:20.453Z,15
2017-02-22T07:30:30.819Z,15
2017-02-22T07:31:41.185Z,15
2017-02-22T07:32:52.192Z,20
2017-02-22T07:34:02.535Z,15
2017-02-22T07:35:12.493Z,15
2017-02-22T07:36:22.858Z,20
2017-02-22T07:37:33.215Z,15
2017-02-22T07:38:44.481Z,20
2017-02-22T07:39:54.874Z,20
2017-02-22T07:41:05.634Z,10
2017-02-22T07:42:16.017Z,15
2017-02-22T07:43:25.982Z,15
2017-02-22T07:44:36.583Z,15
2017-02-22T07:45:46.924Z,15
2017-02-22T07:46:57.120Z,15
2017-02-22T07:48:07.899Z,15
2017-02-22T07:49:18.263Z,10
2017-02-22T07:50:28.478Z,10
2017-02-22T07:51:39.220Z,15
2017-02-22T07:52:49.604Z,10
2017-02-22T07:53:59.953Z,15
2017-02-22T07:55:10.299Z,15
2017-02-22T07:56:20.965Z,15
2017-02-22T07:57:31.320Z,15
2017-02-22T07:58:41.661Z,20
2017-02-22T07:59:51.611Z,20
2017-02-22T08:01:01.956Z,20
2017-02-22T08:02:12.629Z,20
2017-02-22T08:03:23.380Z,30
2017-02-22T08:04:33.764Z,25
2017-02-22T08:05:44.125Z,25
2017-02-22T08:06:54.883Z,25
2017-02-22T08:08:05.156Z,25
2017-02-22T08:09:15.522Z,25
2017-02-22T08:10:25.892Z,20
2017-02-22T08:11:36.693Z,20
2017-02-22T08:12:47.485Z,25
2017-02-22T08:13:58.681Z,20
2017-02-22T08:15:09.477Z,25
2017-02-22T08:16:19.831Z,20
2017-02-22T08:17:30.350Z,25
2017-02-22T08:18:40.321Z,20
2017-02-22T08:19:50.136Z,20
2017-02-22T08:21:00.494Z,20
2017-02-22T08:22:11.243Z,20
2017-02-22T08:23:21.265Z,20
2017-02-22T08:24:32.017Z,25
2017-02-22T08:25:42.225Z,25
2017-02-22T08:26:52.618Z,20
2017-02-22T08:28:03.399Z,20
2017-02-22T08:29:13.390Z,15
2017-02-22T08:30:23.755Z,15
2017-02-22T08:31:34.414Z,15
2017-02-22T08:32:44.769Z,15
2017-02-22T08:33:55.134Z,20
2017-02-22T08:35:05.877Z,20
2017-02-22T08:36:16.266Z,15
2017-02-22T08:37:26.510Z,20
2017-02-22T08:38:37.259Z,20
2017-02-22T08:39:47.620Z,20
2017-02-22T08:40:57.969Z,15
2017-02-22T08:42:07.928Z,15
2017-02-22T08:43:18.975Z,20
2017-02-22T08:44:28.936Z,20
2017-02-22T08:45:39.332Z,25
2017-02-22T08:46:49.324Z,25
2017-02-22T08:47:59.671Z,20
2017-02-22T08:49:10.696Z,25
2017-02-22T08:50:21.082Z,30
2017-02-22T08:51:31.630Z,40
2017-02-22T08:52:41.195Z,25
2017-02-22T08:53:51.554Z,30
2017-02-22T08:55:02.607Z,30
2017-02-22T08:56:12.631Z,25
2017-02-22T08:57:23.394Z,20
2017-02-22T08:58:33.761Z,25
2017-02-22T08:59:44.533Z,25
2017-02-22T09:00:55.143Z,35
2017-02-22T09:02:05.099Z,30
2017-02-22T09:03:15.877Z,40
2017-02-22T09:04:26.279Z,35
2017-02-22T09:05:37.045Z,40
2017-02-22T09:06:48.091Z,45
2017-02-22T09:07:58.452Z,50
2017-02-22T09:09:09.230Z,45
2017-02-22T09:10:19.599Z,50
2017-02-22T09:11:30.385Z,40
2017-02-22T09:12:41.012Z,45
2017-02-22T09:13:51.793Z,60
2017-02-22T09:15:02.146Z,35
2017-02-22T09:16:12.903Z,45
2017-02-22T09:17:23.680Z,60
2017-02-22T09:18:34.763Z,50
2017-02-22T09:19:45.119Z,50
2017-02-22T09:20:55.508Z,55
2017-02-22T09:22:06.292Z,65
2017-02-22T09:23:16.657Z,65
2017-02-22T09:24:27.298Z,80
2017-02-22T09:25:38.056Z,95
2017-02-22T09:26:48.424Z,80
2017-02-22T09:27:58.788Z,75
2017-02-22T09:29:09.197Z,65
2017-02-22T09:30:19.848Z,45
2017-02-22T09:31:30.600Z,45
2017-02-22T09:32:41.000Z,40
2017-02-22T09:33:51.739Z,40
2017-02-22T09:35:02.488Z,45
2017-02-22T09:36:13.222Z,45
2017-02-22T09:37:23.579Z,45
2017-02-22T09:38:33.919Z,45
2017-02-22T09:39:44.308Z,50
2017-02-22T09:40:54.272Z,55
2017-02-22T09:42:04.982Z,55
2017-02-22T09:43:15.753Z,60
2017-02-22T09:44:26.526Z,65
2017-02-22T09:45:37.284Z,75
2017-02-22T09:46:47.640Z,80
2017-02-22T09:47:57.521Z,75
2017-02-22T09:49:07.902Z,75
2017-02-22T09:50:18.260Z,70
2017-02-22T09:51:27.841Z,75
2017-02-22T09:52:37.800Z,80
2017-02-22T09:53:48.350Z,85
2017-02-22T09:54:58.334Z,90
2017-02-22T09:56:09.080Z,85
2017-02-22T09:57:19.840Z,70
2017-02-22T09:58:30.603Z,65
2017-02-22T09:59:41.645Z,60
2017-02-22T10:00:52.027Z,55
2017-02-22T10:02:02.411Z,60
2017-02-22T10:03:13.183Z,80
2017-02-22T10:04:23.540Z,65
2017-02-22T10:05:34.181Z,60
2017-02-22T10:06:44.162Z,45
2017-02-22T10:07:54.968Z,50
2017-02-22T10:09:05.330Z,40
2017-02-22T10:10:16.132Z,45
2017-02-22T10:11:25.940Z,45
2017-02-22T10:12:37.038Z,50
2017-02-22T10:13:47.702Z,55
2017-02-22T10:14:58.489Z,50
2017-02-22T10:16:09.310Z,55
2017-02-22T10:17:20.138Z,55
2017-02-22T10:18:30.951Z,50
2017-02-22T10:19:41.344Z,50
2017-02-22T10:20:52.131Z,55
2017-02-22T10:22:02.605Z,45
2017-02-22T10:23:13.693Z,45
2017-02-22T10:24:23.677Z,45
2017-02-22T10:25:33.645Z,55
2017-02-22T10:26:43.597Z,65
2017-02-22T10:27:53.587Z,65
2017-02-22T10:29:04.205Z,50
2017-02-22T10:30:14.583Z,40
2017-02-22T10:31:24.519Z,35
2017-02-22T10:32:34.891Z,35
2017-02-22T10:33:45.239Z,35
2017-02-22T10:34:55.492Z,30
2017-02-22T10:36:05.860Z,30
2017-02-22T10:37:16.640Z,55
2017-02-22T10:38:26.599Z,65
2017-02-22T10:39:36.787Z,55
2017-02-22T10:40:47.555Z,60
2017-02-22T10:41:58.333Z,70
2017-02-22T10:43:08.320Z,55
2017-02-22T10:44:19.084Z,55
2017-02-22T10:45:29.747Z,55
2017-02-22T10:46:40.105Z,45
2017-02-22T10:47:50.844Z,40
2017-02-22T10:49:01.255Z,45
2017-02-22T10:50:12.011Z,50
2017-02-22T10:51:23.083Z,40
2017-02-22T10:52:33.456Z,45
2017-02-22T10:53:44.227Z,55
2017-02-22T10:54:54.585Z,55
2017-02-22T10:56:05.380Z,55
2017-02-22T10:57:15.996Z,65
2017-02-22T10:58:26.781Z,70
2017-02-22T10:59:36.740Z,65
2017-02-22T11:00:47.114Z,35
2017-02-22T11:01:57.866Z,35
2017-02-22T11:03:07.711Z,35
2017-02-22T11:04:18.096Z,40
2017-02-22T11:05:28.832Z,35
2017-02-22T11:06:39.561Z,35
2017-02-22T11:07:49.516Z,30
2017-02-22T11:08:59.868Z,65
2017-02-22T11:10:10.611Z,55
2017-02-22T11:11:20.985Z,55
2017-02-22T11:12:31.340Z,35
2017-02-22T11:13:41.715Z,40
2017-02-22T11:14:52.704Z,45
2017-02-22T11:16:01.878Z,30
2017-02-22T11:17:11.444Z,30
2017-02-22T11:18:22.190Z,40
2017-02-22T11:19:32.159Z,50
2017-02-22T11:20:43.207Z,50
2017-02-22T11:21:53.958Z,45
2017-02-22T11:23:04.301Z,40
2017-02-22T11:24:14.663Z,35
2017-02-22T11:25:25.430Z,40
2017-02-22T11:26:36.070Z,30
2017-02-22T11:27:46.410Z,50
2017-02-22T11:28:56.870Z,60
2017-02-22T11:30:06.826Z,65
2017-02-22T11:31:17.204Z,90
2017-02-22T11:32:28.269Z,105
2017-02-22T11:33:39.027Z,60
2017-02-22T11:34:48.986Z,55
2017-02-22T11:35:59.329Z,60
2017-02-22T11:37:10.478Z,65
2017-02-22T11:38:21.905Z,35
2017-02-22T11:39:32.675Z,40
2017-02-22T11:40:42.649Z,50
2017-02-22T11:41:53.392Z,50
2017-02-22T11:43:04.173Z,45
2017-02-22T11:44:14.393Z,35
2017-02-22T11:45:25.153Z,35
2017-02-22T11:46:35.120Z,45
2017-02-22T11:47:45.482Z,40
2017-02-22T11:48:55.844Z,45
2017-02-22T11:50:06.070Z,40
2017-02-22T11:51:16.442Z,55
2017-02-22T11:52:26.817Z,40
2017-02-22T11:53:37.568Z,55
2017-02-22T11:54:48.314Z,65
2017-02-22T11:55:58.909Z,50
2017-02-22T11:57:09.293Z,40
2017-02-22T11:58:19.714Z,45
2017-02-22T11:59:29.680Z,40
2017-02-22T12:00:39.261Z,55
2017-02-22T12:01:49.883Z,45
2017-02-22T12:02:59.853Z,45
2017-02-22T12:04:10.231Z,35
2017-02-22T12:05:20.211Z,65
2017-02-22T12:06:30.965Z,30
2017-02-22T12:07:41.991Z,40
2017-02-22T12:08:51.933Z,45
2017-02-22T12:10:02.680Z,50
2017-02-22T12:11:13.045Z,40
2017-02-22T12:12:23.012Z,40
2017-02-22T12:13:33.667Z,50
2017-02-22T12:14:44.412Z,45
2017-02-22T12:15:54.352Z,50
2017-02-22T12:17:05.113Z,65
2017-02-22T12:18:15.866Z,75
2017-02-22T12:19:26.103Z,65
2017-02-22T12:20:36.067Z,75
2017-02-22T12:21:46.819Z,60
2017-02-22T12:22:57.550Z,55
2017-02-22T12:24:07.907Z,65
2017-02-22T12:25:18.519Z,75
2017-02-22T12:26:28.090Z,70
2017-02-22T12:27:37.658Z,70
2017-02-22T12:28:47.605Z,60
2017-02-22T12:29:57.985Z,45
2017-02-22T12:31:08.628Z,50
2017-02-22T12:32:18.963Z,50
2017-02-22T12:33:29.300Z,75
2017-02-22T12:34:39.684Z,50
2017-02-22T12:35:50.031Z,65
2017-02-22T12:37:00.264Z,60
2017-02-22T12:38:10.619Z,65
2017-02-22T12:39:21.377Z,85
2017-02-22T12:40:32.128Z,80
2017-02-22T12:41:41.687Z,75
2017-02-22T12:42:52.322Z,50
2017-02-22T12:44:02.325Z,50
2017-02-22T12:45:12.488Z,75
2017-02-22T12:46:22.428Z,55
2017-02-22T12:47:33.149Z,45
2017-02-22T12:48:43.786Z,55
2017-02-22T12:49:54.535Z,75
2017-02-22T12:51:04.876Z,75
2017-02-22T12:52:15.207Z,60
2017-02-22T12:53:25.133Z,65
2017-02-22T12:54:34.945Z,70
2017-02-22T12:55:45.665Z,70
2017-02-22T12:56:56.017Z,65
2017-02-22T12:58:06.386Z,55
2017-02-22T12:59:16.359Z,50
2017-02-22T13:00:26.961Z,45
2017-02-22T13:01:36.123Z,35
2017-02-22T13:02:46.081Z,60
2017-02-22T13:03:56.831Z,70
2017-02-22T13:05:07.198Z,55
2017-02-22T13:06:17.798Z,40
2017-02-22T13:07:28.180Z,70
2017-02-22T13:08:37.731Z,80
2017-02-22T13:09:47.697Z,110
2017-02-22T13:10:58.450Z,115
2017-02-22T13:12:09.121Z,115
2017-02-22T13:13:19.451Z,110
2017-02-22T13:14:29.825Z,110
2017-02-22T13:15:40.169Z,50
2017-02-22T13:16:50.542Z,35
2017-02-22T13:18:00.417Z,50
2017-02-22T13:19:10.803Z,50
2017-02-22T13:20:21.151Z,60
2017-02-22T13:21:31.537Z,70
2017-02-22T13:22:41.893Z,65
2017-02-22T13:23:52.967Z,75
2017-02-22T13:25:03.319Z,70
2017-02-22T13:26:13.789Z,75
2017-02-22T13:27:24.548Z,80
2017-02-22T13:28:34.919Z,70
2017-02-22T13:29:46.191Z,70
2017-02-22T13:30:56.172Z,65
2017-02-22T13:32:06.576Z,65
2017-02-22T13:33:17.373Z,60
2017-02-22T13:34:27.735Z,40
2017-02-22T13:35:38.081Z,45
2017-02-22T13:36:48.884Z,70
2017-02-22T13:37:59.248Z,80
2017-02-22T13:39:09.614Z,50
2017-02-22T13:40:19.971Z,55
2017-02-22T13:41:30.637Z,40
2017-02-22T13:42:41.704Z,40
2017-02-22T13:43:52.426Z,25
2017-02-22T13:45:02.391Z,15
2017-02-22T13:46:12.344Z,20
2017-02-22T13:47:23.610Z,25
2017-02-22T13:48:33.981Z,20
2017-02-22T13:49:44.343Z,15
2017-02-22T13:50:55.089Z,10
2017-02-22T13:52:05.438Z,15
2017-02-22T13:53:16.103Z,10
2017-02-22T13:54:26.845Z,15
2017-02-22T13:55:37.613Z,15
2017-02-22T13:56:47.568Z,15
2017-02-22T13:57:57.543Z,25
2017-02-22T13:59:08.580Z,20
2017-02-22T14:00:18.967Z,25
2017-02-22T14:01:28.921Z,25
2017-02-22T14:02:39.299Z,15
2017-02-22T14:03:49.699Z,20
2017-02-22T14:04:59.933Z,45
2017-02-22T14:06:10.707Z,35
2017-02-22T14:07:21.507Z,50
2017-02-22T14:08:31.887Z,50
2017-02-22T14:09:41.844Z,50
2017-02-22T14:10:52.915Z,50
2017-02-22T14:12:03.273Z,50
2017-02-22T14:13:14.006Z,55
2017-02-22T14:14:24.753Z,60
2017-02-22T14:15:34.712Z,60
2017-02-22T14:16:44.921Z,60
2017-02-22T14:17:54.880Z,60
2017-02-22T14:19:05.623Z,60
2017-02-22T14:20:15.968Z,45
2017-02-22T14:21:26.307Z,45
2017-02-22T14:22:36.941Z,50
2017-02-22T14:23:47.296Z,50
2017-02-22T14:24:58.050Z,40
2017-02-22T14:26:08.411Z,45
2017-02-22T14:27:18.767Z,20
2017-02-22T14:28:29.817Z,25
2017-02-22T14:29:40.166Z,30
2017-02-22T14:30:50.518Z,30
2017-02-22T14:32:01.263Z,25
2017-02-22T14:33:11.239Z,25
2017-02-22T14:34:21.094Z,25
2017-02-22T14:35:31.474Z,20
2017-02-22T14:36:41.823Z,20
2017-02-22T14:37:51.772Z,20
2017-02-22T14:39:02.137Z,20
2017-02-22T14:40:12.391Z,15
2017-02-22T14:41:22.745Z,20
2017-02-22T14:42:33.283Z,15
2017-02-22T14:43:42.425Z,15
2017-02-22T14:44:51.970Z,20
2017-02-22T14:46:02.633Z,15
2017-02-22T14:47:13.002Z,15
2017-02-22T14:48:23.327Z,10
2017-02-22T14:49:32.477Z,10
2017-02-22T14:50:41.618Z,10
2017-02-22T14:51:52.238Z,15
2017-02-22T14:53:02.988Z,10
2017-02-22T14:54:13.374Z,10
2017-02-22T14:55:22.918Z,10
2017-02-22T14:56:32.873Z,20
2017-02-22T14:57:43.498Z,20
2017-02-22T14:58:53.441Z,30
2017-02-22T15:00:03.788Z,25
2017-02-22T15:01:13.788Z,25
2017-02-22T15:02:23.733Z,30
2017-02-22T15:03:33.213Z,35
2017-02-22T15:04:43.548Z,35
2017-02-22T15:05:53.889Z,35
2017-02-22T15:07:03.827Z,35
2017-02-22T15:08:14.546Z,30
2017-02-22T15:09:25.173Z,35
2017-02-22T15:10:35.917Z,30
2017-02-22T15:11:45.906Z,30
2017-02-22T15:12:55.511Z,35
2017-02-22T15:14:05.447Z,35
2017-02-22T15:15:15.335Z,35
2017-02-22T15:16:25.263Z,30
2017-02-22T15:17:35.616Z,35
2017-02-22T15:18:45.541Z,30
2017-02-22T15:19:55.870Z,30
2017-02-22T15:21:06.851Z,25
2017-02-22T15:22:17.629Z,25
2017-02-22T15:23:28.389Z,20
2017-02-22T15:24:39.137Z,20
2017-02-22T15:25:49.475Z,15
2017-02-22T15:27:00.470Z,15
2017-02-22T15:28:09.995Z,15
2017-02-22T15:29:20.368Z,10
2017-02-22T15:30:30.757Z,15
2017-02-22T15:31:41.121Z,15
2017-02-22T15:32:51.367Z,15
2017-02-22T15:34:02.108Z,15
2017-02-22T15:35:11.646Z,10
2017-02-22T15:36:21.589Z,10
2017-02-22T15:37:31.521Z,5
2017-02-22T15:38:42.654Z,10
2017-02-22T15:39:52.201Z,10
2017-02-22T15:41:02.925Z,10
2017-02-22T15:42:12.883Z,5
2017-02-22T15:43:23.215Z,5
2017-02-22T15:44:33.806Z,5
2017-02-22T15:45:44.141Z,5
2017-02-22T15:46:54.847Z,5
2017-02-22T15:48:04.394Z,0
2017-02-22T15:49:14.733Z,0
2017-02-22T15:50:24.604Z,0
2017-02-22T15:51:35.349Z,0
2017-02-22T15:52:45.310Z,0
2017-02-22T15:53:54.863Z,0
2017-02-22T15:55:05.609Z,0
2017-02-22T15:56:16.214Z,0
2017-02-22T15:57:26.957Z,0
2017-02-22T15:58:36.515Z,0
2017-02-22T15:59:46.851Z,0
2017-02-22T16:00:57.184Z,0
2017-02-22T16:02:07.791Z,0
2017-02-22T16:03:17.724Z,0
2017-02-22T16:04:27.678Z,0
2017-02-22T16:05:38.414Z,0
2017-02-22T16:06:48.739Z,0
2017-02-22T16:07:59.311Z,0
2017-02-22T16:09:08.869Z,0
2017-02-22T16:10:19.607Z,0
2017-02-22T16:11:29.546Z,0
2017-02-22T16:12:40.278Z,0
2017-02-22T16:13:50.485Z,0
2017-02-22T16:15:00.040Z,0
2017-02-22T16:16:09.597Z,0
2017-02-22T16:17:19.531Z,0
2017-02-22T16:18:29.449Z,0
2017-02-22T16:19:40.544Z,0
2017-02-22T16:20:50.925Z,0
2017-02-22T16:22:01.310Z,0
2017-02-22T16:23:11.681Z,0
2017-02-22T16:24:21.284Z,0
2017-02-22T16:25:31.334Z,0
2017-02-22T16:26:42.135Z,0
2017-02-22T16:27:52.496Z,0
2017-02-22T16:29:02.500Z,0
2017-02-22T16:30:13.274Z,0
2017-02-22T16:31:24.361Z,0
2017-02-22T16:32:34.728Z,0
2017-02-22T16:33:45.179Z,0
2017-02-22T16:34:55.557Z,0
2017-02-22T16:36:06.315Z,0
2017-02-22T16:37:16.971Z,0
2017-02-22T16:38:27.721Z,0
2017-02-22T16:39:38.494Z,0
2017-02-22T16:40:48.080Z,0
2017-02-22T16:41:58.848Z,0
2017-02-22T16:43:09.143Z,0
2017-02-22T16:44:19.505Z,0
2017-02-22T16:45:29.875Z,0
2017-02-22T16:46:40.619Z,0
2017-02-22T16:47:51.042Z,0
2017-02-22T16:49:02.101Z,0
2017-02-22T16:50:12.458Z,0
2017-02-22T16:51:23.225Z,0
2017-02-22T16:52:33.204Z,0
2017-02-22T16:53:43.931Z,0
2017-02-22T16:54:54.578Z,0
2017-02-22T16:56:04.931Z,0
2017-02-22T16:57:15.388Z,0
2017-02-22T16:58:25.777Z,0
2017-02-22T16:59:36.516Z,0
2017-02-22T17:00:47.206Z,0
2017-02-22T17:01:57.954Z,0
2017-02-22T17:03:08.676Z,0